createdAt,value
2023-03-22T00:01:11.380Z,5.60
2023-03-22T00:03:38.001Z,5.13
2023-03-22T00:06:05.219Z,5.25
2023-03-22T00:08:31.837Z,5.50
2023-03-22T00:10:58.332Z,5.63
2023-03-22T00:13:26.144Z,5.82
2023-03-22T00:15:52.689Z,5.70
2023-03-22T00:18:19.360Z,5.70
2023-03-22T00:20:50.484Z,5.68
2023-03-22T00:23:17.080Z,5.53
2023-03-22T00:25:44.891Z,5.85
2023-03-22T00:28:12.056Z,5.35
2023-03-22T00:30:38.944Z,5.50
2023-03-22T00:33:05.886Z,5.90
2023-03-22T00:35:32.580Z,5.78
2023-03-22T00:38:06.435Z,6.03
2023-03-22T00:40:33.654Z,5.97
2023-03-22T00:43:00.124Z,5.38
2023-03-22T00:45:28.424Z,6.00
2023-03-22T00:47:55.102Z,5.80
2023-03-22T00:50:21.825Z,5.55
2023-03-22T00:52:48.469Z,5.40
2023-03-22T00:55:15.287Z,5.65
2023-03-22T00:57:41.845Z,5.57
2023-03-22T01:00:13.527Z,5.95
2023-03-22T01:02:41.673Z,5.20
2023-03-22T01:05:15.784Z,5.38
2023-03-22T01:07:43.467Z,6.00
2023-03-22T01:10:11.316Z,5.47
2023-03-22T01:12:38.609Z,5.55
2023-03-22T01:15:06.511Z,6.10
2023-03-22T01:17:33.149Z,5.75
2023-03-22T01:19:59.873Z,5.18
2023-03-22T01:22:26.908Z,5.55
2023-03-22T01:24:54.301Z,5.90
2023-03-22T01:27:20.787Z,5.80
2023-03-22T01:29:47.452Z,5.80
2023-03-22T01:32:14.183Z,5.50
2023-03-22T01:34:40.852Z,5.68
2023-03-22T01:37:07.469Z,5.78
2023-03-22T01:39:35.590Z,5.82
2023-03-22T01:42:05.858Z,5.60
2023-03-22T01:44:32.512Z,5.90
2023-03-22T01:47:01.392Z,5.53
2023-03-22T01:49:32.356Z,6.00
2023-03-22T01:52:04.112Z,5.68
2023-03-22T01:54:59.627Z,5.78
2023-03-22T01:57:37.511Z,5.82
2023-03-22T02:00:10.987Z,6.13
2023-03-22T02:03:02.602Z,6.50
2023-03-22T02:05:35.946Z,8.20
2023-03-22T02:08:04.822Z,7.22
2023-03-22T02:10:48.641Z,6.80
2023-03-22T02:13:34.195Z,6.70
2023-03-22T02:16:56.941Z,6.60
2023-03-22T02:19:45.371Z,6.72
2023-03-22T02:22:57.971Z,6.53
2023-03-22T02:25:46.982Z,6.72
2023-03-22T02:28:32.202Z,6.07
2023-03-22T02:31:17.638Z,5.93
2023-03-22T02:33:51.783Z,6.22
2023-03-22T02:36:34.669Z,5.68
2023-03-22T02:39:19.422Z,5.47
2023-03-22T02:41:58.108Z,5.45
2023-03-22T02:44:38.154Z,5.85
2023-03-22T02:47:21.771Z,5.63
2023-03-22T02:50:22.521Z,5.30
2023-03-22T02:53:23.297Z,5.85
2023-03-22T02:55:56.522Z,5.68
2023-03-22T02:58:30.421Z,5.20
2023-03-22T03:01:02.141Z,6.00
2023-03-22T03:03:30.498Z,5.57
2023-03-22T03:06:00.784Z,5.53
2023-03-22T03:08:28.024Z,5.22
2023-03-22T03:10:55.789Z,5.20
2023-03-22T03:13:22.680Z,5.32
2023-03-22T03:15:53.860Z,5.38
2023-03-22T03:18:38.682Z,5.65
2023-03-22T03:21:50.391Z,5.47
2023-03-22T03:24:38.170Z,5.57
2023-03-22T03:27:36.717Z,5.60
2023-03-22T03:30:10.134Z,5.63
2023-03-22T03:32:47.780Z,5.63
2023-03-22T03:35:23.366Z,5.65
2023-03-22T03:38:04.076Z,5.50
2023-03-22T03:41:00.310Z,5.63
2023-03-22T03:43:27.106Z,5.32
2023-03-22T03:45:54.750Z,5.55
2023-03-22T03:48:23.017Z,5.25
2023-03-22T03:50:52.212Z,5.60
2023-03-22T03:53:19.020Z,5.35
2023-03-22T03:55:46.163Z,5.00
2023-03-22T03:58:13.739Z,5.05
2023-03-22T04:00:41.412Z,5.13
2023-03-22T04:03:26.480Z,5.25
2023-03-22T04:08:53.320Z,5.40
2023-03-22T04:11:23.932Z,5.80
2023-03-22T04:13:54.137Z,5.82
2023-03-22T04:16:24.959Z,5.85
2023-03-22T04:18:51.818Z,5.90
2023-03-22T04:21:19.813Z,5.68
2023-03-22T04:23:53.456Z,5.68
2023-03-22T04:26:20.243Z,5.47
2023-03-22T04:29:03.018Z,5.85
2023-03-22T04:31:31.281Z,5.35
2023-03-22T04:34:05.869Z,5.10
2023-03-22T04:36:45.107Z,5.38
2023-03-22T04:39:21.947Z,4.90
2023-03-22T04:41:57.969Z,4.88
2023-03-22T04:44:25.589Z,4.93
2023-03-22T04:46:53.054Z,5.05
2023-03-22T04:49:20.173Z,4.97
2023-03-22T04:51:46.820Z,4.93
2023-03-22T04:54:20.849Z,5.18
2023-03-22T04:56:48.742Z,4.85
2023-03-22T04:59:20.210Z,4.70
2023-03-22T05:01:48.911Z,4.78
2023-03-22T05:04:19.551Z,9.27
2023-03-22T05:06:48.595Z,16.70
2023-03-22T05:09:24.227Z,14.00
2023-03-22T05:11:52.852Z,10.63
2023-03-22T05:14:36.403Z,7.97
2023-03-22T05:17:03.788Z,11.20
2023-03-22T05:19:34.015Z,9.85
2023-03-22T05:22:01.923Z,9.25
2023-03-22T05:24:57.518Z,16.92
2023-03-22T05:27:34.938Z,16.85
2023-03-22T05:30:34.134Z,15.93
2023-03-22T05:33:07.633Z,18.58
2023-03-22T05:35:41.442Z,12.35
2023-03-22T05:38:09.905Z,15.55
2023-03-22T05:40:40.052Z,13.60
2023-03-22T05:43:07.043Z,10.63
2023-03-22T05:45:36.845Z,10.18
2023-03-22T05:48:12.354Z,8.70
2023-03-22T05:50:39.184Z,8.15
2023-03-22T05:53:06.902Z,7.00
2023-03-22T05:55:53.655Z,5.53
2023-03-22T05:58:20.174Z,6.20
2023-03-22T06:00:51.369Z,5.70
2023-03-22T06:03:20.801Z,5.90
2023-03-22T06:05:58.802Z,6.03
2023-03-22T06:08:37.736Z,6.10
2023-03-22T06:13:32.741Z,7.60
2023-03-22T06:16:01.307Z,5.75
2023-03-22T06:18:28.756Z,4.97
2023-03-22T06:21:02.544Z,5.85
2023-03-22T06:23:29.085Z,5.75
2023-03-22T06:25:56.054Z,5.60
2023-03-22T06:28:23.206Z,5.10
2023-03-22T06:30:52.975Z,5.45
2023-03-22T06:33:27.401Z,5.10
2023-03-22T06:36:07.058Z,5.75
2023-03-22T06:38:54.092Z,6.20
2023-03-22T06:41:20.627Z,6.28
2023-03-22T06:43:47.272Z,6.68
2023-03-22T06:46:29.112Z,8.35
2023-03-22T06:49:05.772Z,7.75
2023-03-22T06:51:32.377Z,13.27
2023-03-22T06:53:58.866Z,8.75
2023-03-22T06:56:25.553Z,5.80
2023-03-22T06:58:54.542Z,4.85
2023-03-22T07:01:21.523Z,5.57
2023-03-22T07:03:48.230Z,4.85
2023-03-22T07:06:16.606Z,4.57
2023-03-22T07:08:47.358Z,4.65
2023-03-22T07:11:18.278Z,4.47
2023-03-22T07:13:49.507Z,4.40
2023-03-22T07:16:20.704Z,4.38
2023-03-22T07:18:51.498Z,4.30
2023-03-22T07:21:17.988Z,4.57
2023-03-22T07:23:49.746Z,4.22
2023-03-22T07:26:18.841Z,4.15
2023-03-22T07:31:15.580Z,4.40
2023-03-22T07:34:03.688Z,4.03
2023-03-22T07:36:35.161Z,4.05
2023-03-22T07:39:01.784Z,3.60
2023-03-22T07:41:32.535Z,3.80
2023-03-22T07:44:22.759Z,4.22
2023-03-22T07:47:07.986Z,3.60
2023-03-22T07:49:42.976Z,4.20
2023-03-22T07:52:14.976Z,4.43
2023-03-22T07:54:42.368Z,3.80
2023-03-22T07:57:09.508Z,3.95
2023-03-22T07:59:46.918Z,3.95
2023-03-22T08:02:14.229Z,3.83
2023-03-22T08:04:46.307Z,3.70
2023-03-22T08:07:30.227Z,3.28
2023-03-22T08:09:58.376Z,4.00
2023-03-22T08:12:28.093Z,3.22
2023-03-22T08:15:04.031Z,3.10
2023-03-22T08:17:31.731Z,3.05
2023-03-22T08:19:58.623Z,2.83
2023-03-22T08:22:40.237Z,2.80
2023-03-22T08:25:18.908Z,3.00
2023-03-22T08:27:45.947Z,3.03
2023-03-22T08:30:13.065Z,3.58
2023-03-22T08:32:40.022Z,4.72
2023-03-22T08:35:07.134Z,4.05
2023-03-22T08:37:33.627Z,2.85
2023-03-22T08:40:06.561Z,3.03
2023-03-22T08:42:38.283Z,3.20
2023-03-22T08:45:05.083Z,2.92
2023-03-22T08:47:33.792Z,2.70
2023-03-22T08:50:03.109Z,4.20
2023-03-22T08:52:44.590Z,4.60
2023-03-22T08:55:21.203Z,4.05
2023-03-22T08:58:16.345Z,4.03
2023-03-22T09:00:51.245Z,3.05
2023-03-22T09:03:30.203Z,4.30
2023-03-22T09:05:57.531Z,2.60
2023-03-22T09:08:26.196Z,2.53
2023-03-22T09:10:58.980Z,2.20
2023-03-22T09:13:25.729Z,2.28
2023-03-22T09:15:56.683Z,2.20
2023-03-22T09:18:26.814Z,1.80
2023-03-22T09:20:56.624Z,1.90
2023-03-22T09:23:32.140Z,1.70
2023-03-22T09:26:01.656Z,1.95
2023-03-22T09:28:29.007Z,1.95
2023-03-22T09:31:02.227Z,1.70
2023-03-22T09:33:29.416Z,1.88
2023-03-22T09:35:57.138Z,1.88
2023-03-22T09:38:25.079Z,1.58
2023-03-22T09:41:02.677Z,1.25
2023-03-22T09:43:40.452Z,1.40
2023-03-22T09:46:15.155Z,1.70
2023-03-22T09:48:43.258Z,1.40
2023-03-22T09:51:25.541Z,1.45
2023-03-22T09:53:53.275Z,1.45
2023-03-22T09:56:24.911Z,1.63
2023-03-22T09:59:03.806Z,1.38
2023-03-22T10:01:52.011Z,1.35
2023-03-22T10:04:58.196Z,1.30
2023-03-22T10:07:29.420Z,1.33
2023-03-22T10:09:56.007Z,1.40
2023-03-22T10:12:28.592Z,1.65
2023-03-22T10:15:03.774Z,1.30
2023-03-22T10:17:31.368Z,1.27
2023-03-22T10:20:37.345Z,1.40
2023-03-22T10:23:06.738Z,1.30
2023-03-22T10:28:00.858Z,1.20
2023-03-22T10:30:34.181Z,1.20
2023-03-22T10:33:02.670Z,1.27
2023-03-22T10:35:30.742Z,1.50
2023-03-22T10:38:02.782Z,1.52
2023-03-22T10:40:32.720Z,1.30
2023-03-22T10:43:03.400Z,1.35
2023-03-22T10:45:33.462Z,1.48
2023-03-22T10:48:06.834Z,1.40
2023-03-22T10:50:36.565Z,1.30
2023-03-22T10:53:04.558Z,1.48
2023-03-22T10:55:31.076Z,1.40
2023-03-22T10:58:11.734Z,1.38
2023-03-22T11:00:42.257Z,1.27
2023-03-22T11:03:08.939Z,1.60
2023-03-22T11:05:35.625Z,1.60
2023-03-22T11:08:02.545Z,1.52
2023-03-22T11:10:33.377Z,1.60
2023-03-22T11:13:09.502Z,1.63
2023-03-22T11:15:39.704Z,1.60
2023-03-22T11:18:15.628Z,1.50
2023-03-22T11:20:44.057Z,1.50
2023-03-22T11:23:13.039Z,1.50
2023-03-22T11:25:45.873Z,1.50
2023-03-22T11:28:17.214Z,1.50
2023-03-22T11:30:57.771Z,1.40
2023-03-22T11:33:25.967Z,1.30
2023-03-22T11:35:57.659Z,1.50
2023-03-22T11:38:29.705Z,1.40
2023-03-22T11:40:59.699Z,1.30
2023-03-22T11:43:40.504Z,2.67
2023-03-22T11:46:08.219Z,1.20
2023-03-22T11:48:36.183Z,1.30
2023-03-22T11:51:11.249Z,1.30
2023-03-22T11:53:43.726Z,1.40
2023-03-22T11:56:12.717Z,1.25
2023-03-22T11:58:39.112Z,1.30
2023-03-22T12:01:06.762Z,1.38
2023-03-22T12:03:39.052Z,1.35
2023-03-22T12:06:16.691Z,1.33
2023-03-22T12:08:47.563Z,1.30
2023-03-22T12:11:36.578Z,1.30
2023-03-22T12:14:09.598Z,1.42
2023-03-22T12:16:45.649Z,1.40
2023-03-22T12:19:21.303Z,1.75
2023-03-22T12:21:49.177Z,1.33
2023-03-22T12:24:33.918Z,1.80
2023-03-22T12:27:14.000Z,1.58
2023-03-22T12:29:46.179Z,1.40
2023-03-22T12:32:18.099Z,1.45
2023-03-22T12:34:48.779Z,1.20
2023-03-22T12:37:21.812Z,1.33
2023-03-22T12:39:51.693Z,1.35
2023-03-22T12:42:22.948Z,1.40
2023-03-22T12:45:04.052Z,1.40
2023-03-22T12:47:48.413Z,1.10
2023-03-22T12:50:25.551Z,1.50
2023-03-22T12:52:56.617Z,1.38
2023-03-22T12:55:34.679Z,1.30
2023-03-22T12:58:01.647Z,1.38
2023-03-22T13:00:34.410Z,1.30
2023-03-22T13:03:22.991Z,1.20
2023-03-22T13:08:21.595Z,1.10
2023-03-22T13:11:18.604Z,1.10
2023-03-22T13:13:47.001Z,1.20
2023-03-22T13:16:16.855Z,1.30
2023-03-22T13:18:43.382Z,1.15
2023-03-22T13:21:23.221Z,1.25
2023-03-22T13:24:05.037Z,1.13
2023-03-22T13:26:31.540Z,1.10
2023-03-22T13:29:00.789Z,1.23
2023-03-22T13:31:43.684Z,1.27
2023-03-22T13:34:16.792Z,1.30
2023-03-22T13:36:50.760Z,1.25
2023-03-22T13:39:17.806Z,1.30
2023-03-22T13:41:48.733Z,1.30
2023-03-22T13:44:37.122Z,1.45
2023-03-22T13:47:04.054Z,1.52
2023-03-22T13:49:46.953Z,1.25
2023-03-22T13:52:38.261Z,1.15
2023-03-22T13:55:18.099Z,1.38
2023-03-22T13:57:50.382Z,1.23
2023-03-22T14:00:39.510Z,1.30
2023-03-22T14:03:41.029Z,1.40
2023-03-22T14:06:13.825Z,1.40
2023-03-22T14:08:42.574Z,1.40
2023-03-22T14:13:56.041Z,1.35
2023-03-22T14:16:44.136Z,1.40
2023-03-22T14:19:23.331Z,1.40
